createdAt,value
2023-03-24T00:01:36.470Z,61.00
2023-03-24T00:04:10.660Z,61.07
2023-03-24T00:06:44.953Z,61.23
2023-03-24T00:09:18.832Z,61.30
2023-03-24T00:11:52.686Z,61.44
2023-03-24T00:14:26.570Z,61.45
2023-03-24T00:17:00.693Z,61.41
2023-03-24T00:19:38.691Z,61.26
2023-03-24T00:22:14.882Z,61.24
2023-03-24T00:24:49.956Z,61.22
2023-03-24T00:27:23.732Z,61.34
2023-03-24T00:29:59.952Z,61.19
2023-03-24T00:32:34.359Z,61.27
2023-03-24T00:35:10.644Z,61.37
2023-03-24T00:37:45.595Z,61.48
2023-03-24T00:40:21.365Z,61.54
2023-03-24T00:42:54.873Z,61.57
2023-03-24T00:45:29.766Z,61.62
2023-03-24T00:48:05.414Z,61.63
2023-03-24T00:50:39.185Z,61.79
2023-03-24T00:53:12.927Z,61.77
2023-03-24T00:55:49.973Z,61.76
2023-03-24T00:58:24.478Z,61.82
2023-03-24T01:00:59.388Z,61.88
2023-03-24T01:03:34.619Z,61.95
2023-03-24T01:06:11.738Z,62.08
2023-03-24T01:08:45.598Z,62.23
2023-03-24T01:11:19.537Z,62.25
2023-03-24T01:13:55.088Z,62.30
2023-03-24T01:16:29.209Z,62.34
2023-03-24T01:19:02.904Z,62.45
2023-03-24T01:21:37.179Z,62.63
2023-03-24T01:24:11.493Z,62.81
2023-03-24T01:26:45.630Z,62.89
2023-03-24T01:29:19.322Z,62.97
2023-03-24T01:31:53.253Z,63.02
2023-03-24T01:34:27.085Z,63.13
2023-03-24T01:37:00.817Z,63.29
2023-03-24T01:39:34.304Z,63.41
2023-03-24T01:42:08.100Z,63.46
2023-03-24T01:44:41.762Z,63.50
2023-03-24T01:47:15.298Z,63.57
2023-03-24T01:49:52.327Z,63.62
2023-03-24T01:52:31.489Z,63.58
2023-03-24T01:55:09.095Z,63.64
2023-03-24T01:57:46.337Z,63.63
2023-03-24T02:00:22.486Z,63.76
2023-03-24T02:03:18.821Z,63.89
2023-03-24T02:06:02.696Z,63.86
2023-03-24T02:08:43.168Z,63.94
2023-03-24T02:11:16.981Z,63.97
2023-03-24T02:13:57.052Z,64.11
2023-03-24T02:17:00.427Z,64.10
2023-03-24T02:23:04.712Z,64.25
2023-03-24T02:26:09.478Z,64.41
2023-03-24T02:28:51.712Z,64.57
2023-03-24T02:31:53.712Z,64.59
2023-03-24T02:35:13.527Z,64.59
2023-03-24T02:38:09.068Z,64.49
2023-03-24T02:40:46.622Z,64.67
2023-03-24T02:43:35.690Z,64.68
2023-03-24T02:46:19.267Z,64.62
2023-03-24T02:49:05.695Z,64.62
2023-03-24T02:51:48.980Z,64.68
2023-03-24T02:54:28.112Z,64.72
2023-03-24T02:57:06.255Z,64.71
2023-03-24T03:00:17.209Z,64.77
2023-03-24T03:03:12.395Z,64.89
2023-03-24T03:05:52.865Z,64.95
2023-03-24T03:08:29.672Z,65.06
2023-03-24T03:11:06.312Z,65.06
2023-03-24T03:13:42.506Z,65.20
2023-03-24T03:16:19.873Z,65.33
2023-03-24T03:18:57.685Z,65.21
2023-03-24T03:21:39.464Z,65.38
2023-03-24T03:24:17.085Z,65.48
2023-03-24T03:26:52.791Z,65.53
2023-03-24T03:29:30.236Z,65.92
2023-03-24T03:32:09.624Z,65.72
2023-03-24T03:34:48.333Z,65.95
2023-03-24T03:37:29.466Z,65.91
2023-03-24T03:40:09.732Z,65.83
2023-03-24T03:42:44.886Z,65.79
2023-03-24T03:45:19.042Z,65.79
2023-03-24T03:47:52.837Z,65.85
2023-03-24T03:50:26.877Z,66.05
2023-03-24T03:53:01.453Z,66.13
2023-03-24T03:55:35.755Z,66.12
2023-03-24T03:58:10.509Z,66.32
2023-03-24T04:00:48.671Z,66.36
2023-03-24T04:04:04.350Z,66.47
2023-03-24T04:07:08.730Z,66.42
2023-03-24T04:09:54.140Z,66.50
2023-03-24T04:12:44.109Z,66.47
2023-03-24T04:16:00.599Z,66.55
2023-03-24T04:19:25.788Z,66.69
2023-03-24T04:22:17.666Z,66.87
2023-03-24T04:24:57.435Z,66.92
2023-03-24T04:27:40.459Z,67.00
2023-03-24T04:30:23.724Z,66.94
2023-03-24T04:33:01.043Z,66.94
2023-03-24T04:35:41.151Z,66.87
2023-03-24T04:38:30.610Z,66.85
2023-03-24T04:41:28.048Z,66.93
2023-03-24T04:44:12.457Z,67.03
2023-03-24T04:47:03.734Z,67.18
2023-03-24T04:49:41.010Z,67.42
2023-03-24T04:52:17.517Z,67.48
2023-03-24T04:54:52.022Z,67.52
2023-03-24T04:57:26.937Z,67.56
2023-03-24T05:00:09.908Z,67.72
2023-03-24T05:02:45.631Z,67.95
2023-03-24T05:05:26.117Z,68.10
2023-03-24T05:08:00.447Z,68.20
2023-03-24T05:10:35.808Z,68.18
2023-03-24T05:13:11.138Z,68.23
2023-03-24T05:15:58.641Z,68.20
2023-03-24T05:18:37.586Z,68.20
2023-03-24T05:21:12.574Z,68.06
2023-03-24T05:23:47.144Z,67.96
2023-03-24T05:26:21.025Z,67.93
2023-03-24T05:29:12.866Z,67.72
2023-03-24T05:31:46.807Z,67.64
2023-03-24T05:34:24.612Z,67.38
2023-03-24T05:37:03.656Z,67.23
2023-03-24T05:39:37.281Z,67.30
2023-03-24T05:42:18.799Z,67.54
2023-03-24T05:44:52.864Z,67.65
2023-03-24T05:47:32.637Z,67.50
2023-03-24T05:50:06.715Z,67.44
2023-03-24T05:52:40.404Z,67.28
2023-03-24T05:55:30.914Z,67.25
2023-03-24T05:58:10.177Z,67.25
2023-03-24T06:00:51.487Z,67.11
2023-03-24T06:03:34.827Z,67.24
2023-03-24T06:06:20.436Z,67.18
2023-03-24T06:08:55.453Z,67.15
2023-03-24T06:11:30.781Z,66.96
2023-03-24T06:14:09.721Z,66.89
2023-03-24T06:16:52.396Z,66.87
2023-03-24T06:19:26.436Z,66.88
2023-03-24T06:22:26.606Z,66.69
2023-03-24T06:25:00.917Z,66.61
2023-03-24T06:27:36.502Z,66.52
2023-03-24T06:30:12.883Z,66.42
2023-03-24T06:32:48.003Z,66.39
2023-03-24T06:35:22.129Z,66.25
2023-03-24T06:38:05.719Z,66.17
2023-03-24T06:40:39.339Z,66.11
2023-03-24T06:43:13.174Z,66.07
2023-03-24T06:45:49.540Z,66.02
2023-03-24T06:48:25.915Z,65.96
2023-03-24T06:51:05.917Z,65.79
2023-03-24T06:53:41.696Z,65.74
2023-03-24T06:56:17.609Z,65.69
2023-03-24T06:58:55.528Z,65.62
2023-03-24T07:01:40.413Z,65.54
2023-03-24T07:04:37.167Z,65.70
2023-03-24T07:10:30.474Z,65.75
2023-03-24T07:13:04.643Z,65.90
2023-03-24T07:15:38.961Z,65.82
2023-03-24T07:18:13.926Z,65.94
2023-03-24T07:20:52.185Z,65.92
2023-03-24T07:23:28.408Z,65.99
2023-03-24T07:26:34.931Z,66.08
2023-03-24T07:29:17.322Z,66.32
2023-03-24T07:32:08.205Z,66.47
2023-03-24T07:34:44.270Z,66.57
2023-03-24T07:37:18.139Z,66.76
2023-03-24T07:39:51.656Z,67.08
2023-03-24T07:42:25.819Z,67.08
2023-03-24T07:45:18.842Z,67.20
2023-03-24T07:47:52.627Z,67.39
2023-03-24T07:50:27.035Z,67.58
2023-03-24T07:53:01.113Z,67.89
2023-03-24T07:55:35.025Z,67.96
2023-03-24T07:58:22.117Z,67.83
2023-03-24T08:01:13.335Z,67.90
2023-03-24T08:06:49.358Z,68.25
2023-03-24T08:09:24.477Z,68.56
2023-03-24T08:12:02.216Z,68.79
2023-03-24T08:14:41.195Z,69.02
2023-03-24T08:17:14.938Z,69.58
2023-03-24T08:19:59.981Z,69.69
2023-03-24T08:22:34.776Z,69.85
2023-03-24T08:25:11.248Z,69.62
2023-03-24T08:27:45.257Z,69.36
2023-03-24T08:30:21.487Z,69.49
2023-03-24T08:32:56.757Z,69.16
2023-03-24T08:35:32.896Z,69.08
2023-03-24T08:38:07.311Z,68.86
2023-03-24T08:40:42.672Z,68.88
2023-03-24T08:43:20.338Z,69.04
2023-03-24T08:45:53.719Z,69.07
2023-03-24T08:48:28.171Z,68.89
2023-03-24T08:51:01.893Z,68.84
2023-03-24T08:53:35.353Z,68.81
2023-03-24T08:56:09.599Z,68.98
2023-03-24T08:58:43.201Z,69.37
2023-03-24T09:01:17.072Z,69.61
2023-03-24T09:03:50.780Z,69.44
2023-03-24T09:06:24.222Z,69.13
2023-03-24T09:08:58.096Z,69.16
2023-03-24T09:11:31.895Z,69.13
2023-03-24T09:14:06.075Z,68.41
2023-03-24T09:16:40.095Z,68.99
2023-03-24T09:19:14.231Z,68.38
2023-03-24T09:21:50.189Z,65.06
2023-03-24T09:24:24.148Z,62.97
2023-03-24T09:26:58.089Z,62.57
2023-03-24T09:29:31.708Z,61.74
2023-03-24T09:32:05.579Z,61.13
2023-03-24T09:34:39.598Z,61.11
2023-03-24T09:37:13.241Z,61.29
2023-03-24T09:39:46.587Z,61.49
2023-03-24T09:42:25.080Z,60.65
2023-03-24T09:45:00.945Z,60.11
2023-03-24T09:47:40.410Z,60.17
2023-03-24T09:50:23.269Z,58.87
2023-03-24T09:53:01.139Z,58.68
2023-03-24T09:55:36.793Z,58.39
2023-03-24T09:58:13.720Z,58.32
2023-03-24T10:00:48.939Z,58.11
2023-03-24T10:03:24.785Z,58.24
2023-03-24T10:06:07.728Z,58.55
2023-03-24T10:08:45.748Z,58.30
2023-03-24T10:11:26.752Z,58.27
2023-03-24T10:14:18.855Z,57.91
2023-03-24T10:17:02.421Z,57.66
2023-03-24T10:19:47.663Z,57.80
2023-03-24T10:22:27.559Z,58.30
2023-03-24T10:25:08.781Z,58.69
2023-03-24T10:27:48.546Z,59.00
2023-03-24T10:30:25.432Z,59.39
2023-03-24T10:32:59.503Z,59.53
2023-03-24T10:35:38.506Z,59.54
2023-03-24T10:38:19.891Z,59.75
2023-03-24T10:40:54.329Z,60.08
2023-03-24T10:43:30.074Z,59.85
2023-03-24T10:46:05.364Z,59.94
2023-03-24T10:48:45.761Z,59.89
2023-03-24T10:51:21.828Z,59.85
2023-03-24T10:54:13.732Z,59.72
2023-03-24T10:56:48.319Z,59.74
2023-03-24T10:59:30.034Z,59.92
2023-03-24T11:02:17.229Z,59.43
2023-03-24T11:04:56.490Z,59.28
2023-03-24T11:07:36.123Z,59.02
2023-03-24T11:10:19.241Z,59.04
2023-03-24T11:13:08.215Z,59.09
2023-03-24T11:15:57.170Z,59.13
2023-03-24T11:18:30.899Z,59.00
2023-03-24T11:21:08.565Z,59.20
2023-03-24T11:23:45.487Z,59.15
2023-03-24T11:26:22.347Z,59.10
2023-03-24T11:28:59.035Z,59.22
2023-03-24T11:31:38.567Z,59.41
2023-03-24T11:34:17.197Z,59.48
2023-03-24T11:36:58.300Z,59.43
2023-03-24T11:39:34.463Z,59.16
2023-03-24T11:42:17.547Z,59.19
2023-03-24T11:44:53.943Z,59.00
2023-03-24T11:47:32.613Z,59.08
2023-03-24T11:50:20.199Z,58.98
2023-03-24T11:52:58.732Z,58.80
2023-03-24T11:55:40.146Z,59.00
2023-03-24T11:58:25.842Z,59.05
2023-03-24T12:01:05.685Z,59.02
2023-03-24T12:04:20.206Z,58.90
2023-03-24T12:07:15.061Z,58.77
2023-03-24T12:09:55.660Z,59.05
2023-03-24T12:12:40.426Z,58.68
2023-03-24T12:15:34.613Z,58.64
2023-03-24T12:18:21.987Z,58.44
2023-03-24T12:21:01.904Z,58.05
2023-03-24T12:23:47.432Z,57.19
2023-03-24T12:26:25.348Z,56.79
2023-03-24T12:29:24.123Z,55.93
2023-03-24T12:32:18.366Z,55.02
2023-03-24T12:35:16.993Z,54.33
2023-03-24T12:38:00.072Z,53.29
2023-03-24T12:41:01.957Z,52.60
2023-03-24T12:43:46.819Z,53.38
2023-03-24T12:46:47.781Z,52.53
2023-03-24T12:49:51.012Z,51.29
2023-03-24T12:52:37.338Z,50.90
2023-03-24T12:55:18.058Z,50.69
2023-03-24T12:57:59.395Z,50.46
2023-03-24T13:00:36.683Z,49.02
2023-03-24T13:03:18.259Z,49.72
2023-03-24T13:06:04.450Z,50.76
2023-03-24T13:08:49.723Z,49.91
2023-03-24T13:11:33.328Z,50.16
2023-03-24T13:14:14.592Z,50.40
2023-03-24T13:16:49.871Z,50.33
2023-03-24T13:19:27.605Z,49.73
2023-03-24T13:22:01.992Z,49.26
2023-03-24T13:24:36.683Z,49.44
2023-03-24T13:27:16.267Z,49.67
2023-03-24T13:30:25.011Z,50.23
2023-03-24T13:33:02.466Z,50.22
2023-03-24T13:36:00.140Z,50.46
2023-03-24T13:38:39.123Z,50.15
2023-03-24T13:41:19.710Z,49.91
2023-03-24T13:44:00.723Z,50.24
2023-03-24T13:46:37.324Z,49.91
2023-03-24T13:49:17.084Z,49.98
2023-03-24T13:51:51.671Z,49.45
2023-03-24T13:54:28.156Z,49.15
2023-03-24T13:57:05.881Z,49.58
2023-03-24T14:00:00.182Z,49.52
2023-03-24T14:02:50.237Z,49.43
2023-03-24T14:05:57.389Z,48.97
2023-03-24T14:08:56.187Z,48.99
2023-03-24T14:12:09.796Z,49.00
2023-03-24T14:15:15.784Z,49.38
2023-03-24T14:17:55.494Z,49.23
2023-03-24T14:20:36.353Z,49.15
2023-03-24T14:23:25.166Z,49.40
2023-03-24T14:26:00.358Z,49.39
2023-03-24T14:28:39.285Z,49.01
2023-03-24T14:31:25.890Z,49.24
2023-03-24T14:34:11.174Z,49.42
2023-03-24T14:36:46.394Z,49.43
2023-03-24T14:39:35.028Z,49.15
2023-03-24T14:42:28.050Z,48.78
2023-03-24T14:45:03.232Z,48.97
2023-03-24T14:47:39.992Z,48.96
2023-03-24T14:50:23.011Z,49.01
2023-03-24T14:52:59.496Z,49.00
2023-03-24T14:55:35.258Z,49.07
2023-03-24T14:58:22.822Z,48.94
2023-03-24T15:03:41.738Z,49.30
2023-03-24T15:06:19.963Z,49.60
2023-03-24T15:08:55.566Z,49.55
2023-03-24T15:11:31.888Z,49.13
2023-03-24T15:14:06.610Z,49.08
2023-03-24T15:16:41.442Z,48.94
2023-03-24T15:19:24.350Z,49.25
2023-03-24T15:22:04.127Z,49.31
2023-03-24T15:24:40.319Z,49.24
2023-03-24T15:27:27.930Z,49.13
2023-03-24T15:30:03.134Z,49.22
2023-03-24T15:32:40.571Z,49.30
2023-03-24T15:35:18.645Z,49.56
2023-03-24T15:37:56.918Z,49.50
2023-03-24T15:40:39.354Z,49.40
2023-03-24T15:43:22.047Z,49.29
2023-03-24T15:46:08.746Z,49.30
2023-03-24T15:48:49.559Z,49.40
2023-03-24T15:51:43.694Z,49.73
2023-03-24T15:54:24.580Z,49.96
2023-03-24T15:57:18.627Z,49.94
2023-03-24T15:59:58.404Z,49.96
2023-03-24T16:02:39.310Z,50.09
2023-03-24T16:05:20.104Z,50.27
2023-03-24T16:08:04.014Z,50.24
2023-03-24T16:10:43.145Z,50.25
2023-03-24T16:13:22.180Z,50.72
2023-03-24T16:16:00.333Z,51.02
2023-03-24T16:18:37.209Z,51.31
2023-03-24T16:21:17.242Z,51.41
2023-03-24T16:23:51.390Z,51.48
2023-03-24T16:26:27.086Z,51.62
2023-03-24T16:29:19.335Z,51.69
2023-03-24T16:31:54.089Z,51.75
2023-03-24T16:34:28.058Z,51.91
2023-03-24T16:37:03.037Z,52.11
2023-03-24T16:39:36.693Z,52.44
2023-03-24T16:42:10.950Z,52.40
2023-03-24T16:44:45.846Z,52.65
2023-03-24T16:47:19.951Z,53.26
2023-03-24T16:49:53.815Z,53.51
2023-03-24T16:52:27.690Z,53.95
2023-03-24T16:55:01.722Z,54.29
2023-03-24T16:57:36.968Z,54.53
2023-03-24T17:00:14.184Z,55.46
2023-03-24T17:02:49.956Z,56.11
2023-03-24T17:05:28.586Z,57.12
2023-03-24T17:08:01.793Z,58.09
2023-03-24T17:10:35.901Z,58.87
2023-03-24T17:13:09.188Z,59.60
2023-03-24T17:15:44.194Z,60.22
2023-03-24T17:18:18.400Z,60.93
2023-03-24T17:20:53.570Z,61.68
2023-03-24T17:23:30.864Z,62.06
2023-03-24T17:26:05.827Z,62.65
2023-03-24T17:28:41.685Z,63.07
2023-03-24T17:31:16.766Z,63.58
2023-03-24T17:33:52.550Z,63.99
2023-03-24T17:36:27.577Z,64.41
2023-03-24T17:39:05.551Z,64.74
2023-03-24T17:41:45.554Z,65.09
2023-03-24T17:44:21.877Z,65.45
2023-03-24T17:46:57.808Z,65.84
2023-03-24T17:49:34.120Z,66.22
2023-03-24T17:52:10.149Z,66.61
2023-03-24T17:54:46.471Z,67.13
2023-03-24T17:57:22.503Z,67.38
2023-03-24T18:00:01.169Z,67.81
2023-03-24T18:02:44.176Z,68.21
2023-03-24T18:05:18.979Z,69.54
2023-03-24T18:07:53.835Z,70.69
2023-03-24T18:10:28.549Z,71.28
2023-03-24T18:13:04.160Z,72.04
2023-03-24T18:15:42.972Z,72.88
2023-03-24T18:18:19.568Z,73.92
2023-03-24T18:20:54.993Z,75.06
2023-03-24T18:23:32.960Z,75.07
2023-03-24T18:26:10.716Z,76.16
2023-03-24T18:28:50.864Z,76.36
2023-03-24T18:31:26.955Z,76.53
2023-03-24T18:34:04.075Z,76.38
2023-03-24T18:36:47.318Z,76.66
2023-03-24T18:39:25.940Z,76.86
2023-03-24T18:42:03.302Z,77.42
2023-03-24T18:44:38.967Z,77.26
2023-03-24T18:47:15.488Z,77.18
2023-03-24T18:49:51.735Z,77.04
2023-03-24T18:52:30.692Z,77.17
2023-03-24T18:55:06.662Z,77.45
2023-03-24T18:57:46.173Z,77.23
2023-03-24T19:00:28.548Z,77.20
2023-03-24T19:03:07.600Z,77.14
2023-03-24T19:05:45.793Z,77.09
2023-03-24T19:08:22.768Z,77.13
2023-03-24T19:11:03.816Z,77.17
2023-03-24T19:13:41.904Z,77.19
2023-03-24T19:16:19.396Z,77.07
2023-03-24T19:18:58.790Z,77.14
2023-03-24T19:21:36.681Z,77.06
2023-03-24T19:24:20.110Z,77.25
2023-03-24T19:26:56.339Z,77.17
2023-03-24T19:29:32.903Z,77.15
2023-03-24T19:32:08.210Z,77.23
2023-03-24T19:34:43.897Z,77.31
2023-03-24T19:37:22.301Z,77.11
2023-03-24T19:40:00.297Z,77.10
2023-03-24T19:42:36.300Z,77.13
2023-03-24T19:45:16.718Z,77.11
2023-03-24T19:47:54.567Z,77.11
2023-03-24T19:50:41.388Z,77.13
2023-03-24T19:53:21.616Z,76.99
2023-03-24T19:56:04.170Z,76.99
2023-03-24T19:58:40.157Z,76.91
2023-03-24T20:01:22.679Z,76.89
2023-03-24T20:03:59.809Z,76.78
2023-03-24T20:06:37.746Z,76.73
2023-03-24T20:09:14.513Z,76.87
2023-03-24T20:11:55.028Z,76.86
2023-03-24T20:14:35.273Z,76.88
2023-03-24T20:17:14.073Z,77.12
2023-03-24T20:19:52.806Z,77.05
2023-03-24T20:22:31.381Z,77.10
2023-03-24T20:25:10.600Z,77.38
2023-03-24T20:27:48.545Z,77.51
2023-03-24T20:30:29.196Z,77.53
2023-03-24T20:33:09.765Z,77.54
2023-03-24T20:35:49.313Z,77.48
2023-03-24T20:38:24.913Z,77.37
2023-03-24T20:41:09.946Z,77.32
2023-03-24T20:43:46.254Z,77.24
2023-03-24T20:46:22.701Z,77.07
2023-03-24T20:49:00.505Z,76.88
2023-03-24T20:51:38.065Z,76.67
2023-03-24T20:54:17.264Z,76.54
2023-03-24T20:56:54.323Z,76.30
2023-03-24T20:59:32.838Z,76.09
2023-03-24T21:02:10.771Z,76.08
2023-03-24T21:04:48.117Z,76.09
2023-03-24T21:07:26.039Z,76.08
2023-03-24T21:10:05.263Z,75.99
2023-03-24T21:12:53.453Z,75.86
2023-03-24T21:15:32.551Z,75.59
2023-03-24T21:18:08.740Z,75.19
2023-03-24T21:20:56.357Z,74.77
2023-03-24T21:23:36.081Z,74.68
2023-03-24T21:26:16.267Z,74.45
2023-03-24T21:28:51.908Z,74.21
2023-03-24T21:31:28.262Z,74.27
2023-03-24T21:34:03.563Z,74.26
2023-03-24T21:36:38.733Z,74.10
2023-03-24T21:39:13.049Z,74.13
2023-03-24T21:41:48.194Z,74.25
2023-03-24T21:44:21.382Z,74.14
2023-03-24T21:46:55.057Z,74.03
2023-03-24T21:49:28.755Z,74.14
2023-03-24T21:52:05.881Z,74.02
2023-03-24T21:54:42.215Z,73.88
2023-03-24T21:57:16.439Z,73.70
2023-03-24T21:59:50.394Z,73.77
2023-03-24T22:02:25.419Z,73.85
2023-03-24T22:05:03.649Z,73.91
2023-03-24T22:07:39.785Z,74.17
2023-03-24T22:10:15.703Z,74.13
2023-03-24T22:12:49.632Z,74.17
2023-03-24T22:15:23.393Z,74.08
2023-03-24T22:17:57.270Z,73.87
2023-03-24T22:20:32.230Z,73.79
2023-03-24T22:23:05.930Z,73.51
2023-03-24T22:25:39.908Z,72.86
2023-03-24T22:28:13.623Z,72.54
2023-03-24T22:30:47.176Z,72.16
2023-03-24T22:33:20.982Z,71.96
2023-03-24T22:35:58.146Z,71.75
2023-03-24T22:38:33.017Z,71.73
2023-03-24T22:41:09.914Z,71.90
2023-03-24T22:43:43.656Z,71.85
2023-03-24T22:46:17.233Z,71.73
2023-03-24T22:48:51.219Z,71.64
2023-03-24T22:51:25.214Z,71.60
2023-03-24T22:53:59.446Z,71.48
2023-03-24T22:56:33.269Z,71.34
2023-03-24T22:59:07.195Z,71.23
2023-03-24T23:01:41.300Z,71.30
2023-03-24T23:04:15.545Z,71.30
2023-03-24T23:06:49.369Z,71.31
2023-03-24T23:09:22.904Z,71.31
2023-03-24T23:11:56.790Z,71.11
2023-03-24T23:14:30.492Z,71.03
2023-03-24T23:17:05.421Z,71.06
2023-03-24T23:19:39.867Z,71.29
2023-03-24T23:22:13.778Z,71.37
2023-03-24T23:24:48.204Z,71.45
2023-03-24T23:27:22.652Z,71.46
2023-03-24T23:29:57.090Z,71.52
2023-03-24T23:32:33.791Z,71.63
2023-03-24T23:35:09.408Z,71.80
2023-03-24T23:37:42.993Z,71.81
2023-03-24T23:40:18.271Z,71.89
2023-03-24T23:42:52.881Z,71.86
2023-03-24T23:45:26.519Z,72.00
2023-03-24T23:48:00.966Z,72.04
2023-03-24T23:50:35.252Z,72.17
2023-03-24T23:53:09.258Z,72.24
2023-03-24T23:55:43.354Z,72.26
2023-03-24T23:58:17.112Z,72.41
